sensor_id;sensor_type;location;lat;lon;timestamp;pressure;altitude;pressure_sealevel;temperature;humidity
70254;BME280;57649;42.968;1.608;2023-02-23T00:01:27;97052.19;;;8.52;100.00
70254;BME280;57649;42.968;1.608;2023-02-23T00:03:57;97042.38;;;8.52;100.00
70254;BME280;57649;42.968;1.608;2023-02-23T00:06:25;97039.69;;;8.52;100.00
70254;BME280;57649;42.968;1.608;2023-02-23T00:08:51;97035.69;;;8.56;100.00
70254;BME280;57649;42.968;1.608;2023-02-23T00:11:17;97027.84;;;8.55;100.00
70254;BME280;57649;42.968;1.608;2023-02-23T00:13:45;97027.38;;;8.59;100.00
70254;BME280;57649;42.968;1.608;2023-02-23T00:16:13;97018.84;;;8.64;100.00
70254;BME280;57649;42.968;1.608;2023-02-23T00:18:54;97010.50;;;8.59;100.00
70254;BME280;57649;42.968;1.608;2023-02-23T00:21:27;97009.53;;;8.60;100.00
70254;BME280;57649;42.968;1.608;2023-02-23T00:24:10;97002.69;;;8.57;100.00
70254;BME280;57649;42.968;1.608;2023-02-23T00:26:37;96999.53;;;8.54;100.00
70254;BME280;57649;42.968;1.608;2023-02-23T00:29:07;96993.16;;;8.55;100.00
70254;BME280;57649;42.968;1.608;2023-02-23T00:31:33;96997.00;;;8.52;100.00
70254;BME280;57649;42.968;1.608;2023-02-23T00:34:01;96995.34;;;8.51;100.00
70254;BME280;57649;42.968;1.608;2023-02-23T00:36:29;96992.31;;;8.46;100.00
70254;BME280;57649;42.968;1.608;2023-02-23T00:38:56;96989.66;;;8.46;100.00
70254;BME280;57649;42.968;1.608;2023-02-23T00:41:23;96980.97;;;8.44;100.00
70254;BME280;57649;42.968;1.608;2023-02-23T00:43:56;96978.97;;;8.46;100.00
70254;BME280;57649;42.968;1.608;2023-02-23T00:46:24;96979.34;;;8.43;100.00
70254;BME280;57649;42.968;1.608;2023-02-23T00:48:52;96965.44;;;8.31;100.00
70254;BME280;57649;42.968;1.608;2023-02-23T00:51:20;96964.25;;;8.25;100.00
70254;BME280;57649;42.968;1.608;2023-02-23T00:53:46;96966.25;;;8.23;100.00
70254;BME280;57649;42.968;1.608;2023-02-23T00:56:13;96963.09;;;8.12;100.00
70254;BME280;57649;42.968;1.608;2023-02-23T00:58:39;96959.25;;;8.14;100.00
70254;BME280;57649;42.968;1.608;2023-02-23T01:01:09;96952.94;;;8.15;100.00
70254;BME280;57649;42.968;1.608;2023-02-23T01:03:37;96949.56;;;8.13;100.00
70254;BME280;57649;42.968;1.608;2023-02-23T01:06:05;96940.91;;;8.11;100.00
70254;BME280;57649;42.968;1.608;2023-02-23T01:08:32;96944.38;;;8.03;100.00
70254;BME280;57649;42.968;1.608;2023-02-23T01:10:58;96926.41;;;7.97;100.00
70254;BME280;57649;42.968;1.608;2023-02-23T01:13:24;96930.72;;;7.98;100.00
70254;BME280;57649;42.968;1.608;2023-02-23T01:15:52;96914.56;;;7.92;100.00
70254;BME280;57649;42.968;1.608;2023-02-23T01:18:19;96909.19;;;7.83;100.00
70254;BME280;57649;42.968;1.608;2023-02-23T01:20:45;96904.53;;;7.85;100.00
70254;BME280;57649;42.968;1.608;2023-02-23T01:23:14;96915.34;;;7.76;100.00
70254;BME280;57649;42.968;1.608;2023-02-23T01:25:42;96907.97;;;7.61;100.00
70254;BME280;57649;42.968;1.608;2023-02-23T01:28:09;96908.28;;;7.58;100.00
70254;BME280;57649;42.968;1.608;2023-02-23T01:30:35;96901.97;;;7.59;100.00
70254;BME280;57649;42.968;1.608;2023-02-23T01:33:00;96906.13;;;7.54;100.00
70254;BME280;57649;42.968;1.608;2023-02-23T01:35:27;96898.94;;;7.46;100.00
70254;BME280;57649;42.968;1.608;2023-02-23T01:37:53;96894.44;;;7.46;100.00
70254;BME280;57649;42.968;1.608;2023-02-23T01:40:23;96901.44;;;7.47;100.00
70254;BME280;57649;42.968;1.608;2023-02-23T01:43:14;96895.41;;;7.45;100.00
70254;BME280;57649;42.968;1.608;2023-02-23T01:45:41;96895.59;;;7.44;100.00
70254;BME280;57649;42.968;1.608;2023-02-23T01:48:11;96897.84;;;7.22;100.00
70254;BME280;57649;42.968;1.608;2023-02-23T01:50:48;96892.00;;;7.19;100.00
70254;BME280;57649;42.968;1.608;2023-02-23T01:53:16;96876.63;;;7.04;100.00
70254;BME280;57649;42.968;1.608;2023-02-23T01:55:42;96865.44;;;6.92;100.00
70254;BME280;57649;42.968;1.608;2023-02-23T01:58:13;96878.16;;;6.81;100.00
70254;BME280;57649;42.968;1.608;2023-02-23T02:00:47;96869.81;;;6.75;100.00
70254;BME280;57649;42.968;1.608;2023-02-23T02:03:27;96862.31;;;6.71;100.00
70254;BME280;57649;42.968;1.608;2023-02-23T02:05:54;96859.13;;;6.67;100.00
70254;BME280;57649;42.968;1.608;2023-02-23T02:08:21;96858.97;;;6.69;100.00
70254;BME280;57649;42.968;1.608;2023-02-23T02:10:49;96855.47;;;6.68;100.00
70254;BME280;57649;42.968;1.608;2023-02-23T02:13:21;96836.66;;;6.62;100.00
70254;BME280;57649;42.968;1.608;2023-02-23T02:16:16;96844.78;;;6.60;100.00
70254;BME280;57649;42.968;1.608;2023-02-23T02:27:33;96839.50;;;6.42;100.00
70254;BME280;57649;42.968;1.608;2023-02-23T02:33:22;96824.66;;;6.31;100.00
70254;BME280;57649;42.968;1.608;2023-02-23T02:41:33;96822.72;;;6.42;100.00
70254;BME280;57649;42.968;1.608;2023-02-23T02:44:26;96818.63;;;6.47;100.00
70254;BME280;57649;42.968;1.608;2023-02-23T02:46:57;96807.44;;;6.44;100.00
70254;BME280;57649;42.968;1.608;2023-02-23T02:49:29;96808.94;;;6.46;100.00
70254;BME280;57649;42.968;1.608;2023-02-23T02:52:03;96810.69;;;6.29;100.00
70254;BME280;57649;42.968;1.608;2023-02-23T02:57:02;96806.00;;;6.23;100.00
70254;BME280;57649;42.968;1.608;2023-02-23T02:59:29;96801.81;;;6.21;100.00
70254;BME280;57649;42.968;1.608;2023-02-23T03:02:18;96796.06;;;6.07;100.00
70254;BME280;57649;42.968;1.608;2023-02-23T03:05:16;96784.63;;;6.07;100.00
70254;BME280;57649;42.968;1.608;2023-02-23T03:11:08;96786.34;;;6.16;100.00
70254;BME280;57649;42.968;1.608;2023-02-23T03:17:47;96759.13;;;6.22;100.00
70254;BME280;57649;42.968;1.608;2023-02-23T03:20:42;96756.75;;;6.11;100.00
70254;BME280;57649;42.968;1.608;2023-02-23T03:23:41;96753.03;;;6.04;100.00
70254;BME280;57649;42.968;1.608;2023-02-23T03:26:37;96752.50;;;6.00;100.00
70254;BME280;57649;42.968;1.608;2023-02-23T03:29:30;96745.03;;;5.95;100.00
70254;BME280;57649;42.968;1.608;2023-02-23T03:35:24;96728.19;;;6.13;100.00
70254;BME280;57649;42.968;1.608;2023-02-23T03:38:15;96722.69;;;6.06;100.00
70254;BME280;57649;42.968;1.608;2023-02-23T03:41:00;96721.00;;;6.05;100.00
70254;BME280;57649;42.968;1.608;2023-02-23T03:43:50;96715.31;;;6.00;100.00
70254;BME280;57649;42.968;1.608;2023-02-23T03:46:37;96714.84;;;6.05;100.00
70254;BME280;57649;42.968;1.608;2023-02-23T03:49:23;96701.34;;;5.98;100.00
70254;BME280;57649;42.968;1.608;2023-02-23T03:52:15;96693.91;;;6.02;100.00
70254;BME280;57649;42.968;1.608;2023-02-23T03:55:10;96693.06;;;6.01;100.00
70254;BME280;57649;42.968;1.608;2023-02-23T03:57:58;96694.72;;;6.02;100.00
70254;BME280;57649;42.968;1.608;2023-02-23T04:00:47;96698.56;;;6.08;100.00
70254;BME280;57649;42.968;1.608;2023-02-23T04:03:34;96697.59;;;6.09;100.00
70254;BME280;57649;42.968;1.608;2023-02-23T04:06:22;96685.94;;;6.02;100.00
70254;BME280;57649;42.968;1.608;2023-02-23T04:09:07;96669.47;;;5.98;100.00
70254;BME280;57649;42.968;1.608;2023-02-23T04:12:00;96670.75;;;5.94;100.00
70254;BME280;57649;42.968;1.608;2023-02-23T04:17:23;96675.06;;;5.95;100.00
70254;BME280;57649;42.968;1.608;2023-02-23T04:19:51;96668.25;;;5.92;100.00
70254;BME280;57649;42.968;1.608;2023-02-23T04:22:18;96666.03;;;5.88;100.00
70254;BME280;57649;42.968;1.608;2023-02-23T04:24:43;96660.59;;;5.89;100.00
70254;BME280;57649;42.968;1.608;2023-02-23T04:27:11;96651.06;;;5.78;100.00
70254;BME280;57649;42.968;1.608;2023-02-23T04:29:36;96643.03;;;5.70;100.00
70254;BME280;57649;42.968;1.608;2023-02-23T04:32:02;96649.03;;;5.72;100.00
70254;BME280;57649;42.968;1.608;2023-02-23T04:34:27;96647.84;;;5.67;100.00
70254;BME280;57649;42.968;1.608;2023-02-23T04:36:53;96641.84;;;5.65;100.00
70254;BME280;57649;42.968;1.608;2023-02-23T04:39:18;96639.91;;;5.75;100.00
70254;BME280;57649;42.968;1.608;2023-02-23T04:41:43;96648.25;;;5.80;100.00
70254;BME280;57649;42.968;1.608;2023-02-23T04:44:09;96639.81;;;5.85;100.00
70254;BME280;57649;42.968;1.608;2023-02-23T04:46:34;96653.81;;;5.95;100.00
70254;BME280;57649;42.968;1.608;2023-02-23T04:49:00;96642.34;;;5.94;100.00
70254;BME280;57649;42.968;1.608;2023-02-23T04:51:26;96646.78;;;5.86;100.00
70254;BME280;57649;42.968;1.608;2023-02-23T04:53:56;96646.09;;;5.84;100.00
70254;BME280;57649;42.968;1.608;2023-02-23T04:56:22;96641.63;;;5.84;100.00
70254;BME280;57649;42.968;1.608;2023-02-23T04:58:48;96639.03;;;5.92;100.00
70254;BME280;57649;42.968;1.608;2023-02-23T05:01:13;96635.97;;;5.79;100.00
70254;BME280;57649;42.968;1.608;2023-02-23T05:03:39;96634.81;;;5.82;100.00
70254;BME280;57649;42.968;1.608;2023-02-23T05:06:04;96630.84;;;5.86;100.00
70254;BME280;57649;42.968;1.608;2023-02-23T05:08:30;96630.38;;;5.90;100.00
70254;BME280;57649;42.968;1.608;2023-02-23T05:10:55;96622.34;;;5.82;100.00
70254;BME280;57649;42.968;1.608;2023-02-23T05:13:21;96614.38;;;5.82;100.00
70254;BME280;57649;42.968;1.608;2023-02-23T05:15:47;96610.09;;;5.81;100.00
70254;BME280;57649;42.968;1.608;2023-02-23T05:18:12;96605.47;;;5.91;100.00
70254;BME280;57649;42.968;1.608;2023-02-23T05:20:41;96608.78;;;5.93;100.00
70254;BME280;57649;42.968;1.608;2023-02-23T05:23:07;96599.84;;;5.94;100.00
70254;BME280;57649;42.968;1.608;2023-02-23T05:25:32;96584.16;;;6.09;100.00
70254;BME280;57649;42.968;1.608;2023-02-23T05:27:58;96587.53;;;5.93;100.00
70254;BME280;57649;42.968;1.608;2023-02-23T05:30:23;96586.97;;;5.73;100.00
70254;BME280;57649;42.968;1.608;2023-02-23T05:32:49;96587.94;;;5.72;100.00
70254;BME280;57649;42.968;1.608;2023-02-23T05:35:15;96592.09;;;5.75;100.00
70254;BME280;57649;42.968;1.608;2023-02-23T05:37:41;96575.34;;;5.74;100.00
70254;BME280;57649;42.968;1.608;2023-02-23T05:40:07;96569.22;;;5.82;100.00
70254;BME280;57649;42.968;1.608;2023-02-23T05:42:32;96558.28;;;5.77;100.00
70254;BME280;57649;42.968;1.608;2023-02-23T05:44:58;96549.09;;;5.71;100.00
70254;BME280;57649;42.968;1.608;2023-02-23T05:47:23;96544.94;;;5.69;100.00
70254;BME280;57649;42.968;1.608;2023-02-23T05:49:49;96543.59;;;5.65;100.00
70254;BME280;57649;42.968;1.608;2023-02-23T05:52:14;96531.16;;;5.65;100.00
70254;BME280;57649;42.968;1.608;2023-02-23T05:54:39;96524.88;;;5.66;100.00
70254;BME280;57649;42.968;1.608;2023-02-23T05:57:05;96517.94;;;5.73;100.00
70254;BME280;57649;42.968;1.608;2023-02-23T05:59:31;96523.41;;;5.80;100.00
70254;BME280;57649;42.968;1.608;2023-02-23T06:01:56;96513.44;;;5.74;100.00
70254;BME280;57649;42.968;1.608;2023-02-23T06:04:21;96515.78;;;5.77;100.00
70254;BME280;57649;42.968;1.608;2023-02-23T06:06:48;96503.53;;;5.92;100.00
70254;BME280;57649;42.968;1.608;2023-02-23T06:09:13;96509.31;;;5.88;100.00
70254;BME280;57649;42.968;1.608;2023-02-23T06:11:38;96512.25;;;6.03;100.00
70254;BME280;57649;42.968;1.608;2023-02-23T06:14:04;96523.19;;;6.08;100.00
70254;BME280;57649;42.968;1.608;2023-02-23T06:16:29;96502.13;;;6.06;100.00
70254;BME280;57649;42.968;1.608;2023-02-23T06:18:55;96486.66;;;6.02;100.00
70254;BME280;57649;42.968;1.608;2023-02-23T06:21:21;96488.00;;;5.97;100.00
70254;BME280;57649;42.968;1.608;2023-02-23T06:23:47;96482.69;;;5.97;100.00
70254;BME280;57649;42.968;1.608;2023-02-23T06:26:12;96479.88;;;5.99;100.00
70254;BME280;57649;42.968;1.608;2023-02-23T06:28:37;96482.97;;;5.94;100.00
70254;BME280;57649;42.968;1.608;2023-02-23T06:31:03;96484.13;;;5.92;100.00
70254;BME280;57649;42.968;1.608;2023-02-23T06:33:28;96479.94;;;5.89;100.00
70254;BME280;57649;42.968;1.608;2023-02-23T06:35:54;96469.91;;;6.01;100.00
70254;BME280;57649;42.968;1.608;2023-02-23T06:38:20;96485.34;;;6.06;100.00
70254;BME280;57649;42.968;1.608;2023-02-23T06:40:45;96471.03;;;5.98;100.00
70254;BME280;57649;42.968;1.608;2023-02-23T06:43:11;96467.41;;;6.08;100.00
70254;BME280;57649;42.968;1.608;2023-02-23T06:45:36;96455.28;;;6.13;100.00
70254;BME280;57649;42.968;1.608;2023-02-23T06:48:02;96450.16;;;6.12;100.00
70254;BME280;57649;42.968;1.608;2023-02-23T06:50:28;96474.75;;;6.22;100.00
70254;BME280;57649;42.968;1.608;2023-02-23T06:52:53;96476.22;;;6.08;100.00
70254;BME280;57649;42.968;1.608;2023-02-23T06:55:20;96469.25;;;5.99;100.00
70254;BME280;57649;42.968;1.608;2023-02-23T06:57:48;96464.09;;;5.97;100.00
70254;BME280;57649;42.968;1.608;2023-02-23T07:00:14;96456.09;;;5.97;100.00
70254;BME280;57649;42.968;1.608;2023-02-23T07:02:42;96455.28;;;6.05;100.00
70254;BME280;57649;42.968;1.608;2023-02-23T07:05:08;96446.59;;;5.95;100.00
70254;BME280;57649;42.968;1.608;2023-02-23T07:07:34;96457.38;;;5.93;100.00
70254;BME280;57649;42.968;1.608;2023-02-23T07:09:59;96464.66;;;5.83;100.00
70254;BME280;57649;42.968;1.608;2023-02-23T07:12:25;96469.66;;;5.86;100.00
70254;BME280;57649;42.968;1.608;2023-02-23T07:14:50;96464.09;;;5.97;100.00
70254;BME280;57649;42.968;1.608;2023-02-23T07:17:16;96465.56;;;6.00;100.00
70254;BME280;57649;42.968;1.608;2023-02-23T07:19:42;96466.44;;;6.17;100.00
70254;BME280;57649;42.968;1.608;2023-02-23T07:22:07;96477.75;;;6.19;100.00
70254;BME280;57649;42.968;1.608;2023-02-23T07:24:33;96487.38;;;6.20;100.00
70254;BME280;57649;42.968;1.608;2023-02-23T07:26:58;96490.19;;;6.10;100.00
70254;BME280;57649;42.968;1.608;2023-02-23T07:29:24;96491.97;;;6.10;100.00
70254;BME280;57649;42.968;1.608;2023-02-23T07:31:49;96492.28;;;5.98;100.00
70254;BME280;57649;42.968;1.608;2023-02-23T07:34:15;96490.56;;;5.81;100.00
70254;BME280;57649;42.968;1.608;2023-02-23T07:36:40;96485.19;;;5.73;100.00
70254;BME280;57649;42.968;1.608;2023-02-23T07:39:06;96489.03;;;5.70;100.00
70254;BME280;57649;42.968;1.608;2023-02-23T07:41:32;96493.00;;;5.74;100.00
70254;BME280;57649;42.968;1.608;2023-02-23T07:43:58;96496.47;;;5.67;100.00
70254;BME280;57649;42.968;1.608;2023-02-23T07:46:24;96499.72;;;5.87;100.00
70254;BME280;57649;42.968;1.608;2023-02-23T07:48:49;96503.78;;;5.65;100.00
70254;BME280;57649;42.968;1.608;2023-02-23T07:51:15;96529.16;;;5.67;100.00
70254;BME280;57649;42.968;1.608;2023-02-23T07:53:42;96558.13;;;5.52;100.00
70254;BME280;57649;42.968;1.608;2023-02-23T07:56:09;96565.53;;;5.75;100.00
70254;BME280;57649;42.968;1.608;2023-02-23T07:58:40;96575.06;;;5.86;100.00
70254;BME280;57649;42.968;1.608;2023-02-23T08:01:06;96568.28;;;5.91;100.00
70254;BME280;57649;42.968;1.608;2023-02-23T08:03:32;96580.31;;;6.04;100.00
70254;BME280;57649;42.968;1.608;2023-02-23T08:05:57;96584.53;;;6.23;100.00
70254;BME280;57649;42.968;1.608;2023-02-23T08:08:23;96578.28;;;6.32;100.00
70254;BME280;57649;42.968;1.608;2023-02-23T08:10:49;96574.47;;;6.34;100.00
70254;BME280;57649;42.968;1.608;2023-02-23T08:13:15;96570.50;;;6.47;100.00
70254;BME280;57649;42.968;1.608;2023-02-23T08:15:42;96573.84;;;6.57;100.00
70254;BME280;57649;42.968;1.608;2023-02-23T08:18:08;96589.47;;;6.68;100.00
70254;BME280;57649;42.968;1.608;2023-02-23T08:20:33;96594.47;;;6.63;100.00
70254;BME280;57649;42.968;1.608;2023-02-23T08:22:59;96596.81;;;6.74;100.00
70254;BME280;57649;42.968;1.608;2023-02-23T08:25:25;96592.31;;;6.75;100.00
70254;BME280;57649;42.968;1.608;2023-02-23T08:27:52;96596.84;;;6.91;100.00
70254;BME280;57649;42.968;1.608;2023-02-23T08:30:19;96595.50;;;7.03;100.00
70254;BME280;57649;42.968;1.608;2023-02-23T08:32:45;96603.16;;;7.06;100.00
70254;BME280;57649;42.968;1.608;2023-02-23T08:35:11;96589.22;;;7.12;100.00
70254;BME280;57649;42.968;1.608;2023-02-23T08:37:36;96602.34;;;7.22;100.00
70254;BME280;57649;42.968;1.608;2023-02-23T08:40:02;96604.81;;;7.16;100.00
70254;BME280;57649;42.968;1.608;2023-02-23T08:42:28;96605.50;;;7.09;100.00
70254;BME280;57649;42.968;1.608;2023-02-23T08:44:53;96610.31;;;7.14;100.00
70254;BME280;57649;42.968;1.608;2023-02-23T08:47:18;96612.31;;;7.20;100.00
70254;BME280;57649;42.968;1.608;2023-02-23T08:49:48;96617.50;;;7.22;100.00
70254;BME280;57649;42.968;1.608;2023-02-23T08:52:13;96611.66;;;7.35;100.00
70254;BME280;57649;42.968;1.608;2023-02-23T08:54:38;96610.16;;;7.40;100.00
70254;BME280;57649;42.968;1.608;2023-02-23T08:57:04;96614.47;;;7.41;100.00
70254;BME280;57649;42.968;1.608;2023-02-23T08:59:29;96616.97;;;7.43;100.00
70254;BME280;57649;42.968;1.608;2023-02-23T09:01:55;96606.31;;;7.51;100.00
70254;BME280;57649;42.968;1.608;2023-02-23T09:04:20;96605.63;;;7.74;100.00
70254;BME280;57649;42.968;1.608;2023-02-23T09:06:46;96608.59;;;7.70;100.00
70254;BME280;57649;42.968;1.608;2023-02-23T09:09:14;96613.94;;;7.70;100.00
70254;BME280;57649;42.968;1.608;2023-02-23T09:11:40;96615.94;;;7.68;100.00
70254;BME280;57649;42.968;1.608;2023-02-23T09:14:05;96613.47;;;7.59;100.00
70254;BME280;57649;42.968;1.608;2023-02-23T09:16:31;96618.47;;;7.54;100.00
70254;BME280;57649;42.968;1.608;2023-02-23T09:18:57;96620.81;;;7.57;100.00
70254;BME280;57649;42.968;1.608;2023-02-23T09:21:25;96603.16;;;7.47;100.00
70254;BME280;57649;42.968;1.608;2023-02-23T09:23:51;96612.81;;;7.48;100.00
70254;BME280;57649;42.968;1.608;2023-02-23T09:26:19;96635.78;;;7.41;100.00
70254;BME280;57649;42.968;1.608;2023-02-23T09:28:45;96640.94;;;7.51;100.00
70254;BME280;57649;42.968;1.608;2023-02-23T09:31:13;96634.44;;;7.54;100.00
70254;BME280;57649;42.968;1.608;2023-02-23T09:33:39;96649.25;;;7.40;100.00
70254;BME280;57649;42.968;1.608;2023-02-23T09:36:13;96650.25;;;7.30;100.00
70254;BME280;57649;42.968;1.608;2023-02-23T09:38:43;96653.25;;;7.19;100.00
70254;BME280;57649;42.968;1.608;2023-02-23T09:43:57;96664.19;;;6.91;100.00
70254;BME280;57649;42.968;1.608;2023-02-23T09:46:33;96660.03;;;6.97;100.00
70254;BME280;57649;42.968;1.608;2023-02-23T09:49:03;96662.72;;;7.05;100.00
70254;BME280;57649;42.968;1.608;2023-02-23T09:51:33;96661.72;;;7.06;100.00
70254;BME280;57649;42.968;1.608;2023-02-23T09:54:02;96664.41;;;7.15;100.00
70254;BME280;57649;42.968;1.608;2023-02-23T09:56:36;96669.06;;;7.12;100.00
70254;BME280;57649;42.968;1.608;2023-02-23T09:59:06;96671.38;;;7.07;100.00
70254;BME280;57649;42.968;1.608;2023-02-23T10:01:50;96675.84;;;7.07;100.00
70254;BME280;57649;42.968;1.608;2023-02-23T10:10:07;96681.69;;;7.19;100.00
70254;BME280;57649;42.968;1.608;2023-02-23T10:12:53;96684.69;;;7.07;99.18
70254;BME280;57649;42.968;1.608;2023-02-23T10:23:43;96687.84;;;7.11;100.00
70254;BME280;57649;42.968;1.608;2023-02-23T10:26:15;96692.31;;;7.10;99.21
70254;BME280;57649;42.968;1.608;2023-02-23T10:28:42;96700.34;;;7.19;100.00
70254;BME280;57649;42.968;1.608;2023-02-23T10:31:39;96713.66;;;7.35;100.00
70254;BME280;57649;42.968;1.608;2023-02-23T10:34:12;96707.00;;;7.39;97.58
70254;BME280;57649;42.968;1.608;2023-02-23T10:37:01;96709.84;;;7.46;100.00
70254;BME280;57649;42.968;1.608;2023-02-23T10:39:29;96723.00;;;7.56;97.51
70254;BME280;57649;42.968;1.608;2023-02-23T10:41:58;96716.19;;;7.53;97.36
70254;BME280;57649;42.968;1.608;2023-02-23T10:44:25;96707.19;;;7.62;95.41
70254;BME280;57649;42.968;1.608;2023-02-23T10:47:16;96712.66;;;7.52;92.56
70254;BME280;57649;42.968;1.608;2023-02-23T10:49:51;96711.53;;;7.55;95.03
70254;BME280;57649;42.968;1.608;2023-02-23T10:55:05;96718.34;;;7.49;96.53
70254;BME280;57649;42.968;1.608;2023-02-23T10:57:33;96717.97;;;7.36;91.50
70254;BME280;57649;42.968;1.608;2023-02-23T11:02:46;96711.66;;;7.45;93.94
70254;BME280;57649;42.968;1.608;2023-02-23T11:08:18;96703.84;;;7.27;93.53
70254;BME280;57649;42.968;1.608;2023-02-23T11:11:16;96718.66;;;7.46;95.77
70254;BME280;57649;42.968;1.608;2023-02-23T11:13:47;96714.69;;;7.42;94.00
70254;BME280;57649;42.968;1.608;2023-02-23T11:16:18;96724.47;;;7.25;93.34
70254;BME280;57649;42.968;1.608;2023-02-23T11:18:55;96705.47;;;7.04;92.67
70254;BME280;57649;42.968;1.608;2023-02-23T11:21:31;96714.13;;;7.14;93.40
70254;BME280;57649;42.968;1.608;2023-02-23T11:27:23;96704.28;;;7.06;92.71
70254;BME280;57649;42.968;1.608;2023-02-23T11:29:50;96708.13;;;7.04;93.95
70254;BME280;57649;42.968;1.608;2023-02-23T11:32:37;96694.97;;;7.02;94.16
70254;BME280;57649;42.968;1.608;2023-02-23T11:35:25;96703.28;;;6.99;90.35
70254;BME280;57649;42.968;1.608;2023-02-23T11:37:52;96696.94;;;6.92;91.56
70254;BME280;57649;42.968;1.608;2023-02-23T11:40:19;96702.28;;;7.00;93.75
70254;BME280;57649;42.968;1.608;2023-02-23T11:45:23;96695.16;;;7.17;89.78
70254;BME280;57649;42.968;1.608;2023-02-23T11:47:52;96688.03;;;7.26;88.44
70254;BME280;57649;42.968;1.608;2023-02-23T11:53:00;96675.06;;;7.31;89.12
70254;BME280;57649;42.968;1.608;2023-02-23T11:55:28;96675.72;;;7.33;90.70
70254;BME280;57649;42.968;1.608;2023-02-23T12:01:15;96662.41;;;7.33;86.95
70254;BME280;57649;42.968;1.608;2023-02-23T12:03:46;96671.72;;;7.54;88.64
70254;BME280;57649;42.968;1.608;2023-02-23T12:06:33;96672.41;;;7.64;87.58
70254;BME280;57649;42.968;1.608;2023-02-23T12:11:39;96656.56;;;7.70;89.81
70254;BME280;57649;42.968;1.608;2023-02-23T12:14:29;96646.75;;;7.63;87.59
70254;BME280;57649;42.968;1.608;2023-02-23T12:17:05;96655.75;;;7.54;88.13
70254;BME280;57649;42.968;1.608;2023-02-23T12:19:38;96643.25;;;7.62;88.28
70254;BME280;57649;42.968;1.608;2023-02-23T12:22:36;96639.94;;;7.52;86.97
70254;BME280;57649;42.968;1.608;2023-02-23T12:25:15;96618.63;;;7.60;89.00
70254;BME280;57649;42.968;1.608;2023-02-23T12:33:26;96615.63;;;7.55;86.21
70254;BME280;57649;42.968;1.608;2023-02-23T12:36:29;96618.47;;;7.37;86.42
70254;BME280;57649;42.968;1.608;2023-02-23T12:39:09;96599.81;;;7.54;87.67
70254;BME280;57649;42.968;1.608;2023-02-23T12:41:50;96611.78;;;7.58;86.08
70254;BME280;57649;42.968;1.608;2023-02-23T12:47:39;96602.16;;;7.57;88.05
70254;BME280;57649;42.968;1.608;2023-02-23T12:50:16;96602.50;;;7.37;84.15
70254;BME280;57649;42.968;1.608;2023-02-23T12:52:49;96585.00;;;7.43;86.97
70254;BME280;57649;42.968;1.608;2023-02-23T12:55:32;96588.47;;;7.68;87.17
70254;BME280;57649;42.968;1.608;2023-02-23T13:01:38;96580.44;;;7.84;85.27
70254;BME280;57649;42.968;1.608;2023-02-23T13:04:41;96581.47;;;7.75;86.22
70254;BME280;57649;42.968;1.608;2023-02-23T13:10:14;96580.41;;;7.93;84.00
70254;BME280;57649;42.968;1.608;2023-02-23T13:12:53;96580.78;;;7.81;84.99
70254;BME280;57649;42.968;1.608;2023-02-23T13:18:08;96590.84;;;7.55;83.57
70254;BME280;57649;42.968;1.608;2023-02-23T13:23:31;96591.09;;;7.84;85.91
70254;BME280;57649;42.968;1.608;2023-02-23T13:31:26;96566.63;;;7.72;83.12
70254;BME280;57649;42.968;1.608;2023-02-23T13:33:53;96562.13;;;7.81;83.04
70254;BME280;57649;42.968;1.608;2023-02-23T13:36:20;96556.63;;;7.83;83.70
70254;BME280;57649;42.968;1.608;2023-02-23T13:39:07;96573.81;;;7.72;82.74
70254;BME280;57649;42.968;1.608;2023-02-23T13:42:03;96574.34;;;7.59;82.51
70254;BME280;57649;42.968;1.608;2023-02-23T13:52:41;96561.91;;;7.91;83.49
70254;BME280;57649;42.968;1.608;2023-02-23T13:58:03;96546.97;;;7.82;81.70
70254;BME280;57649;42.968;1.608;2023-02-23T14:00:29;96545.97;;;7.75;81.66
70254;BME280;57649;42.968;1.608;2023-02-23T14:02:55;96544.34;;;7.74;81.67
70254;BME280;57649;42.968;1.608;2023-02-23T14:05:25;96525.84;;;7.80;81.89
70254;BME280;57649;42.968;1.608;2023-02-23T14:07:58;96516.09;;;7.96;81.76
70254;BME280;57649;42.968;1.608;2023-02-23T14:13:25;96514.34;;;8.11;84.33
70254;BME280;57649;42.968;1.608;2023-02-23T14:16:11;96511.13;;;8.24;83.12
70254;BME280;57649;42.968;1.608;2023-02-23T14:21:56;96506.81;;;8.23;81.63
70254;BME280;57649;42.968;1.608;2023-02-23T14:24:25;96512.16;;;8.23;82.33
70254;BME280;57649;42.968;1.608;2023-02-23T14:29:41;96515.88;;;8.37;82.52
70254;BME280;57649;42.968;1.608;2023-02-23T14:34:59;96516.41;;;8.32;83.33
70254;BME280;57649;42.968;1.608;2023-02-23T14:37:28;96519.50;;;8.52;81.85
70254;BME280;57649;42.968;1.608;2023-02-23T14:40:21;96502.72;;;8.43;81.10
70254;BME280;57649;42.968;1.608;2023-02-23T14:42:55;96494.13;;;8.25;82.88
70254;BME280;57649;42.968;1.608;2023-02-23T14:45:23;96485.91;;;8.35;83.45
70254;BME280;57649;42.968;1.608;2023-02-23T14:47:52;96481.28;;;8.28;82.84
70254;BME280;57649;42.968;1.608;2023-02-23T14:50:29;96489.50;;;8.50;82.68
70254;BME280;57649;42.968;1.608;2023-02-23T14:52:56;96492.66;;;8.54;83.46
70254;BME280;57649;42.968;1.608;2023-02-23T14:55:30;96486.75;;;8.35;80.92
70254;BME280;57649;42.968;1.608;2023-02-23T14:58:01;96480.31;;;8.21;81.88
70254;BME280;57649;42.968;1.608;2023-02-23T15:00:30;96486.72;;;8.04;81.77
70254;BME280;57649;42.968;1.608;2023-02-23T15:03:02;96485.47;;;8.23;84.76
70254;BME280;57649;42.968;1.608;2023-02-23T15:05:34;96482.16;;;8.21;81.95
70254;BME280;57649;42.968;1.608;2023-02-23T15:08:04;96478.28;;;8.32;85.69
70254;BME280;57649;42.968;1.608;2023-02-23T15:10:39;96475.03;;;8.44;84.09
70254;BME280;57649;42.968;1.608;2023-02-23T15:15:50;96476.63;;;8.22;85.67
70254;BME280;57649;42.968;1.608;2023-02-23T15:18:36;96478.38;;;8.15;87.84
70254;BME280;57649;42.968;1.608;2023-02-23T15:21:15;96481.31;;;7.89;87.58
70254;BME280;57649;42.968;1.608;2023-02-23T15:23:44;96484.53;;;7.76;90.72
70254;BME280;57649;42.968;1.608;2023-02-23T15:26:34;96470.72;;;7.33;89.97
70254;BME280;57649;42.968;1.608;2023-02-23T15:31:34;96465.06;;;7.28;91.09